Brewster, Kansas
Current Conditions -  °F | °C
As of 3:53 PM on Thursday 18 Dec 2014 (Local Time) from KGLD Reporting Station
Clear Clear  
Wind Chill: 38°   Ceiling: Unl
Heat Index: 42°   Visibility: 10mi
Dew Point: 29°   Wind: 6mph
Humidity: 60%   Direction: 330°NNW
Pressure: 30.05"   Gusts: NA
Location:  39.37°N, 101.38°W
Report Text: KGLD 182153Z AUTO 33005KT 10SM CLR 06/M02 A3005 RMK AO2 SLP195 T00561017
Loading
Personal Weather Stations






























Interactive Weather Map New forecast layout! Learn more

10-Day Weather Forecast

Advertisements
Track Severe Weather on mobile